createdAt,value
2019-04-20T00:00:41.100Z,96.00
2019-04-20T00:03:07.860Z,96.50
2019-04-20T00:05:39.125Z,95.80
2019-04-20T00:08:17.875Z,96.10
2019-04-20T00:10:52.476Z,96.20
2019-04-20T00:13:24.471Z,95.50
2019-04-20T00:15:45.067Z,95.70
2019-04-20T00:18:15.387Z,95.80
2019-04-20T00:20:57.559Z,95.70
2019-04-20T00:23:29.303Z,95.60
2019-04-20T00:26:15.772Z,95.90
2019-04-20T00:28:58.939Z,96.30
2019-04-20T00:31:23.585Z,96.20
2019-04-20T00:33:53.380Z,96.20
2019-04-20T00:36:13.895Z,95.90
2019-04-20T00:38:50.896Z,95.60
2019-04-20T00:41:18.573Z,95.90
2019-04-20T00:43:47.244Z,96.10
2019-04-20T00:46:26.366Z,96.70
2019-04-20T00:48:56.000Z,96.30
2019-04-20T00:51:35.301Z,96.60
2019-04-20T00:53:55.897Z,96.80
2019-04-20T00:56:24.868Z,96.70
2019-04-20T00:59:11.985Z,96.90
2019-04-20T01:01:47.483Z,97.30
2019-04-20T01:06:47.748Z,96.70
2019-04-20T01:09:14.008Z,96.90
2019-04-20T01:11:46.767Z,97.10
2019-04-20T01:14:17.459Z,97.20
2019-04-20T01:16:54.705Z,97.00
2019-04-20T01:19:20.362Z,96.80
2019-04-20T01:21:57.890Z,97.20
2019-04-20T01:24:30.909Z,96.60
2019-04-20T01:26:58.040Z,97.10
2019-04-20T01:29:34.761Z,97.00
2019-04-20T01:32:10.479Z,97.20
2019-04-20T01:34:42.335Z,97.20
2019-04-20T01:37:14.438Z,97.50
2019-04-20T01:39:37.082Z,97.50
2019-04-20T01:42:04.610Z,97.50
2019-04-20T01:44:41.184Z,97.80
2019-04-20T01:47:08.245Z,97.80
2019-04-20T01:49:39.021Z,97.50
2019-04-20T01:52:16.116Z,98.30
2019-04-20T01:54:59.420Z,98.20
2019-04-20T01:57:43.846Z,98.20
2019-04-20T02:00:10.617Z,97.60
2019-04-20T02:02:57.233Z,97.60
2019-04-20T02:05:28.952Z,97.20
2019-04-20T02:07:55.555Z,97.30
2019-04-20T02:10:33.253Z,97.80
2019-04-20T02:13:01.088Z,97.90
2019-04-20T02:15:35.209Z,98.80
2019-04-20T02:18:14.958Z,98.70
2019-04-20T02:20:48.607Z,98.80
2019-04-20T02:23:17.625Z,98.10
2019-04-20T02:25:35.670Z,99.40
2019-04-20T02:28:22.754Z,99.10
2019-04-20T02:31:15.631Z,99.10
2019-04-20T02:34:00.771Z,98.80
2019-04-20T02:36:40.686Z,99.00
2019-04-20T02:39:27.060Z,98.90
2019-04-20T02:41:44.560Z,99.70
2019-04-20T02:44:16.027Z,99.90
2019-04-20T02:49:26.198Z,99.90
2019-04-20T02:51:46.887Z,99.90
2019-04-20T02:57:05.497Z,99.90
2019-04-20T02:59:48.616Z,99.90
2019-04-20T03:01:43.398Z,99.90
2019-04-20T03:03:56.721Z,99.90
2019-04-20T03:06:38.228Z,99.90
2019-04-20T03:09:22.550Z,99.90
2019-04-20T03:11:59.322Z,99.50
2019-04-20T03:14:17.670Z,99.80
2019-04-20T03:16:50.365Z,99.40
2019-04-20T03:19:16.110Z,99.10
2019-04-20T03:21:59.814Z,98.80
2019-04-20T03:24:32.314Z,99.00
2019-04-20T03:26:56.911Z,99.20
2019-04-20T03:29:36.058Z,99.80
2019-04-20T03:32:46.919Z,99.90
2019-04-20T03:37:17.469Z,99.90
2019-04-20T03:39:40.551Z,99.90
2019-04-20T03:41:56.744Z,99.90
2019-04-20T03:44:29.097Z,99.90
2019-04-20T03:47:01.209Z,99.90
2019-04-20T03:49:54.962Z,99.90
2019-04-20T03:52:27.444Z,99.90
2019-04-20T03:55:15.074Z,99.90
2019-04-20T03:57:55.161Z,99.90
2019-04-20T04:00:26.436Z,99.90
2019-04-20T04:03:25.817Z,99.90
2019-04-20T04:05:48.031Z,99.90
2019-04-20T04:08:15.919Z,99.90
2019-04-20T04:10:54.869Z,99.90
2019-04-20T04:13:17.109Z,99.90
2019-04-20T04:15:54.687Z,99.90
2019-04-20T04:18:28.082Z,99.90
2019-04-20T04:21:01.485Z,99.90
2019-04-20T04:23:40.874Z,99.90
2019-04-20T04:26:12.657Z,99.90
2019-04-20T04:28:44.806Z,99.90
2019-04-20T04:31:16.215Z,99.90
2019-04-20T04:34:06.239Z,99.90
2019-04-20T04:36:17.677Z,99.90
2019-04-20T04:39:01.034Z,99.90
2019-04-20T04:41:27.080Z,99.90
2019-04-20T04:43:55.186Z,99.90
2019-04-20T04:46:10.322Z,99.90
2019-04-20T04:48:44.210Z,99.90
2019-04-20T04:51:19.761Z,99.90
2019-04-20T04:53:54.217Z,99.90
2019-04-20T04:56:18.046Z,99.90
2019-04-20T04:58:46.835Z,99.90
2019-04-20T05:01:22.399Z,99.90
2019-04-20T05:04:19.176Z,99.90
2019-04-20T05:06:33.190Z,99.90
2019-04-20T05:08:57.961Z,99.90
2019-04-20T05:11:23.813Z,99.90
2019-04-20T05:14:00.186Z,99.90
2019-04-20T05:16:46.047Z,99.90
2019-04-20T05:19:19.323Z,99.90
2019-04-20T05:21:58.654Z,99.90
2019-04-20T05:24:23.154Z,99.90
2019-04-20T05:27:06.048Z,99.90
2019-04-20T05:29:19.377Z,99.90
2019-04-20T05:31:51.782Z,99.90
2019-04-20T05:34:38.643Z,99.90
2019-04-20T05:37:18.020Z,99.90
2019-04-20T05:39:45.803Z,99.90
2019-04-20T05:42:19.143Z,99.90
2019-04-20T05:44:49.955Z,99.90
2019-04-20T05:47:16.999Z,99.90
2019-04-20T05:49:49.995Z,99.90
2019-04-20T05:52:43.843Z,99.90
2019-04-20T05:54:58.223Z,99.90
2019-04-20T05:57:30.250Z,99.90
2019-04-20T06:00:07.149Z,99.90
2019-04-20T06:02:33.278Z,99.90
2019-04-20T06:05:04.070Z,99.90
2019-04-20T06:07:35.884Z,99.90
2019-04-20T06:10:09.552Z,99.90
2019-04-20T06:12:36.306Z,99.90
2019-04-20T06:15:20.747Z,99.90
2019-04-20T06:18:01.306Z,99.90
2019-04-20T06:20:36.348Z,99.90
2019-04-20T06:23:28.618Z,99.90
2019-04-20T06:26:12.779Z,99.90
2019-04-20T06:28:26.777Z,99.90
2019-04-20T06:30:59.438Z,99.90
2019-04-20T06:36:57.350Z,99.80
2019-04-20T06:39:22.576Z,99.90
2019-04-20T06:49:32.058Z,98.70
2019-04-20T06:52:11.192Z,98.60
2019-04-20T06:54:38.437Z,98.90
2019-04-20T06:57:10.037Z,99.10
2019-04-20T06:59:59.792Z,98.50
2019-04-20T07:02:21.879Z,98.30
2019-04-20T07:05:08.762Z,98.40
2019-04-20T07:07:35.814Z,97.20
2019-04-20T07:09:59.870Z,96.80
2019-04-20T07:12:24.074Z,96.50
2019-04-20T07:14:47.454Z,96.20
2019-04-20T07:20:04.517Z,95.70
2019-04-20T07:23:09.508Z,95.70
2019-04-20T07:25:18.955Z,95.00
2019-04-20T07:27:55.242Z,94.80
2019-04-20T07:30:33.454Z,94.90
2019-04-20T07:33:04.273Z,95.10
2019-04-20T07:35:40.202Z,94.30
2019-04-20T07:38:31.014Z,94.00
2019-04-20T07:40:55.821Z,92.70
2019-04-20T07:43:30.000Z,91.40
2019-04-20T07:46:10.516Z,92.40
2019-04-20T07:48:42.194Z,90.80
2019-04-20T07:51:03.574Z,90.90
2019-04-20T07:53:58.648Z,91.30
2019-04-20T07:56:34.990Z,91.40
2019-04-20T07:58:50.006Z,91.30
2019-04-20T08:01:45.377Z,90.20
2019-04-20T08:04:17.187Z,89.40
2019-04-20T08:06:43.138Z,90.00
2019-04-20T08:09:22.756Z,90.80
2019-04-20T08:12:11.730Z,86.20
2019-04-20T08:14:55.381Z,89.90
2019-04-20T08:17:20.296Z,87.60
2019-04-20T08:19:46.990Z,86.20
2019-04-20T08:22:19.786Z,84.90
2019-04-20T08:24:52.775Z,82.70
2019-04-20T08:27:16.162Z,79.20
2019-04-20T08:29:59.019Z,84.10
2019-04-20T08:32:45.121Z,79.20
2019-04-20T08:35:28.287Z,73.60
2019-04-20T08:38:14.835Z,77.30
2019-04-20T08:40:36.071Z,75.70
2019-04-20T08:43:20.824Z,78.10
2019-04-20T08:45:46.589Z,71.50
2019-04-20T08:48:19.178Z,68.90
2019-04-20T08:50:47.045Z,68.30
2019-04-20T08:55:47.710Z,68.00
2019-04-20T08:58:02.174Z,65.10
2019-04-20T09:00:39.530Z,69.20
2019-04-20T09:03:12.979Z,74.90
2019-04-20T09:05:51.230Z,67.20
2019-04-20T09:08:17.623Z,71.00
2019-04-20T09:10:54.373Z,69.50
2019-04-20T09:13:21.050Z,70.50
2019-04-20T09:15:42.617Z,69.00
2019-04-20T09:18:22.521Z,71.80
2019-04-20T09:20:52.833Z,67.80
2019-04-20T09:23:38.103Z,67.20
2019-04-20T09:26:16.189Z,64.10
2019-04-20T09:28:39.592Z,62.70
2019-04-20T09:31:22.690Z,61.00
2019-04-20T09:33:55.658Z,63.70
2019-04-20T09:36:29.172Z,61.80
2019-04-20T09:39:11.525Z,61.80
2019-04-20T09:42:00.737Z,58.10
2019-04-20T09:44:30.533Z,60.80
2019-04-20T09:46:58.179Z,51.10
2019-04-20T09:49:38.721Z,50.80
2019-04-20T09:52:12.248Z,53.90
2019-04-20T09:54:45.992Z,55.00
2019-04-20T09:57:22.782Z,61.10
2019-04-20T09:59:53.719Z,53.80
2019-04-20T10:02:15.149Z,55.50
2019-04-20T10:04:37.608Z,54.30
2019-04-20T10:07:14.207Z,55.90
2019-04-20T10:09:44.533Z,46.90
2019-04-20T10:12:11.850Z,47.50
2019-04-20T10:14:42.707Z,50.90
2019-04-20T10:17:13.742Z,50.90
2019-04-20T10:19:45.311Z,49.30
2019-04-20T10:22:15.414Z,49.20
2019-04-20T10:24:48.374Z,46.10
2019-04-20T10:27:17.018Z,49.90
2019-04-20T10:29:46.981Z,46.20
2019-04-20T10:32:17.917Z,49.90
2019-04-20T10:34:48.508Z,46.20
2019-04-20T10:37:20.098Z,46.50
2019-04-20T10:39:50.074Z,46.30
2019-04-20T10:42:20.449Z,45.40
2019-04-20T10:44:53.976Z,48.70
2019-04-20T10:47:23.091Z,46.00
2019-04-20T10:49:55.340Z,46.10
2019-04-20T10:52:27.740Z,39.90
2019-04-20T10:54:58.649Z,43.50
2019-04-20T10:57:29.315Z,44.90
2019-04-20T10:59:59.640Z,40.90
2019-04-20T11:02:29.898Z,41.80
2019-04-20T11:04:59.882Z,44.70
2019-04-20T11:07:30.382Z,38.40
2019-04-20T11:10:10.622Z,38.10
2019-04-20T11:12:34.568Z,40.80
2019-04-20T11:15:06.168Z,42.20
2019-04-20T11:17:37.147Z,37.70
2019-04-20T11:20:07.578Z,41.40
2019-04-20T11:22:38.024Z,43.00
2019-04-20T11:25:08.332Z,39.50
2019-04-20T11:27:38.434Z,38.10
2019-04-20T11:30:10.103Z,36.80
2019-04-20T11:32:40.271Z,39.70
2019-04-20T11:35:20.003Z,34.30
2019-04-20T11:37:42.866Z,35.80
2019-04-20T11:40:14.929Z,38.50
2019-04-20T11:42:45.660Z,38.20
2019-04-20T11:45:16.018Z,36.00
2019-04-20T11:47:47.285Z,32.90
2019-04-20T11:50:17.897Z,33.00
2019-04-20T11:52:51.035Z,34.20
2019-04-20T11:55:20.155Z,35.40
2019-04-20T11:57:51.332Z,34.90
2019-04-20T12:00:42.295Z,34.80
2019-04-20T12:03:21.191Z,33.70
2019-04-20T12:05:46.623Z,34.50
2019-04-20T12:08:13.321Z,31.70
2019-04-20T12:10:48.380Z,34.30
2019-04-20T12:13:16.345Z,35.70
2019-04-20T12:15:47.693Z,30.50
2019-04-20T12:18:17.967Z,31.40
2019-04-20T12:20:47.886Z,30.80
2019-04-20T12:23:18.042Z,30.00
2019-04-20T12:25:50.207Z,30.30
2019-04-20T12:28:20.248Z,29.80
2019-04-20T12:30:51.550Z,32.80
2019-04-20T12:33:22.078Z,28.90
2019-04-20T12:35:52.257Z,30.50
2019-04-20T12:38:23.140Z,31.30
2019-04-20T12:40:53.204Z,31.00
2019-04-20T12:43:23.604Z,29.10
2019-04-20T12:45:53.803Z,29.40
2019-04-20T12:48:23.965Z,31.50
2019-04-20T12:50:55.419Z,32.60
2019-04-20T12:53:26.516Z,29.20
2019-04-20T12:55:56.822Z,29.70
2019-04-20T12:58:28.305Z,31.50
2019-04-20T13:00:58.440Z,30.10
2019-04-20T13:03:29.657Z,30.50
2019-04-20T13:05:59.730Z,31.60
2019-04-20T13:08:36.239Z,32.00
2019-04-20T13:11:04.594Z,28.10
2019-04-20T13:13:48.368Z,28.20
2019-04-20T13:16:22.917Z,27.10
2019-04-20T13:18:57.315Z,29.00
2019-04-20T13:21:27.221Z,28.10
2019-04-20T13:23:57.186Z,27.80
2019-04-20T13:26:28.841Z,30.60
2019-04-20T13:28:59.200Z,27.20
2019-04-20T13:31:29.663Z,27.20
2019-04-20T13:34:03.582Z,27.00
2019-04-20T13:36:37.937Z,29.30
2019-04-20T13:39:12.207Z,29.50
2019-04-20T13:42:02.125Z,29.20
2019-04-20T13:44:28.476Z,27.80
2019-04-20T13:46:58.818Z,25.40
2019-04-20T13:49:29.151Z,29.10
2019-04-20T13:51:59.239Z,27.60
2019-04-20T13:54:29.882Z,28.10
2019-04-20T13:57:01.860Z,28.60
2019-04-20T13:59:43.802Z,27.50
2019-04-20T14:02:22.718Z,28.40
2019-04-20T14:04:54.996Z,28.10
2019-04-20T14:07:26.957Z,26.60
2019-04-20T14:09:57.453Z,24.80
2019-04-20T14:12:32.403Z,26.20
2019-04-20T14:14:59.437Z,26.60
2019-04-20T14:17:30.751Z,26.10
2019-04-20T14:20:06.983Z,26.10
2019-04-20T14:22:33.337Z,27.20
2019-04-20T14:25:04.926Z,26.40
2019-04-20T14:27:35.067Z,26.80
2019-04-20T14:30:06.773Z,27.80
2019-04-20T14:32:36.904Z,26.70
2019-04-20T14:35:09.193Z,28.10
2019-04-20T14:37:39.649Z,27.20
2019-04-20T14:40:10.408Z,27.20
2019-04-20T14:42:46.430Z,27.80
2019-04-20T14:45:12.518Z,26.40
2019-04-20T14:47:43.710Z,25.40
2019-04-20T14:50:14.246Z,24.70
2019-04-20T14:52:44.262Z,25.70
2019-04-20T14:55:17.238Z,27.10
2019-04-20T14:57:47.651Z,26.00
2019-04-20T15:00:35.376Z,25.50
2019-04-20T15:03:23.980Z,24.90
2019-04-20T15:05:57.713Z,25.60
2019-04-20T15:08:27.695Z,25.10
2019-04-20T15:10:58.804Z,24.50
2019-04-20T15:13:28.953Z,24.00
2019-04-20T15:15:59.022Z,25.40
2019-04-20T15:18:33.673Z,25.20
2019-04-20T15:21:05.800Z,23.90
2019-04-20T15:23:35.820Z,24.70
2019-04-20T15:26:06.845Z,26.60
2019-04-20T15:28:36.838Z,25.90
2019-04-20T15:31:07.915Z,24.50
2019-04-20T15:33:39.088Z,25.70
2019-04-20T15:36:10.451Z,26.50
2019-04-20T15:38:40.933Z,25.80
2019-04-20T15:41:13.220Z,25.00
2019-04-20T15:43:43.563Z,24.40
2019-04-20T15:46:15.166Z,24.70
2019-04-20T15:48:46.153Z,27.50
2019-04-20T15:51:17.330Z,25.30
2019-04-20T15:53:47.674Z,25.50
2019-04-20T15:56:18.639Z,25.90
2019-04-20T15:58:48.687Z,28.20
2019-04-20T16:01:22.669Z,25.60
2019-04-20T16:04:01.530Z,26.00
2019-04-20T16:06:32.816Z,25.90
2019-04-20T16:09:06.034Z,25.10
2019-04-20T16:11:37.012Z,25.70
2019-04-20T16:14:08.954Z,24.50
2019-04-20T16:16:40.388Z,26.30
2019-04-20T16:19:25.902Z,24.90
2019-04-20T16:21:43.790Z,25.30
2019-04-20T16:24:15.045Z,25.50
2019-04-20T16:26:47.416Z,27.80
2019-04-20T16:29:17.753Z,26.60
2019-04-20T16:31:50.133Z,27.10
2019-04-20T16:34:21.268Z,26.30
2019-04-20T16:36:54.402Z,27.60
2019-04-20T16:39:23.079Z,26.40
2019-04-20T16:41:53.948Z,28.40
2019-04-20T16:44:25.516Z,28.40
2019-04-20T16:46:56.300Z,28.90
2019-04-20T16:49:26.806Z,27.40
2019-04-20T16:51:57.119Z,28.30
2019-04-20T16:54:27.997Z,29.90
2019-04-20T16:56:58.018Z,29.60
2019-04-20T16:59:28.255Z,28.50
2019-04-20T17:01:58.352Z,30.20
2019-04-20T17:04:30.252Z,29.70
2019-04-20T17:07:16.801Z,30.60
2019-04-20T17:09:49.682Z,31.50
2019-04-20T17:12:19.902Z,32.70
2019-04-20T17:14:49.859Z,31.20
2019-04-20T17:17:19.834Z,30.80
2019-04-20T17:19:49.786Z,31.30
2019-04-20T17:22:19.762Z,32.60
2019-04-20T17:24:49.727Z,31.70
2019-04-20T17:27:37.489Z,33.00
2019-04-20T17:30:10.531Z,33.50
2019-04-20T17:32:41.257Z,33.00
2019-04-20T17:35:20.866Z,33.90
2019-04-20T17:37:45.273Z,35.10
2019-04-20T17:40:37.599Z,35.00
2019-04-20T17:42:56.847Z,38.60
2019-04-20T17:45:28.258Z,38.30
2019-04-20T17:48:05.719Z,37.70
2019-04-20T17:50:41.515Z,40.70
2019-04-20T17:53:12.631Z,41.50
2019-04-20T17:55:45.389Z,41.50
2019-04-20T17:58:20.923Z,42.80
2019-04-20T18:01:06.146Z,43.00
2019-04-20T18:04:11.450Z,44.30
2019-04-20T18:06:30.784Z,42.40
2019-04-20T18:08:56.179Z,41.80
2019-04-20T18:11:19.315Z,43.70
2019-04-20T18:13:46.200Z,44.70
2019-04-20T18:16:43.861Z,45.60
2019-04-20T18:19:15.219Z,45.90
2019-04-20T18:21:41.682Z,47.10
2019-04-20T18:24:24.208Z,47.30
2019-04-20T18:27:04.977Z,49.50
2019-04-20T18:29:37.955Z,49.70
2019-04-20T18:31:57.995Z,51.10
2019-04-20T18:34:53.201Z,50.80
2019-04-20T18:37:21.359Z,51.70
2019-04-20T18:39:57.263Z,52.10
2019-04-20T18:42:29.091Z,50.10
2019-04-20T18:45:14.393Z,49.50
2019-04-20T18:47:48.073Z,52.20
2019-04-20T18:50:09.501Z,49.50
2019-04-20T18:52:29.514Z,50.40
2019-04-20T18:54:59.566Z,50.70
2019-04-20T18:57:31.536Z,51.10
2019-04-20T19:00:02.820Z,51.50
2019-04-20T19:02:40.013Z,52.60
2019-04-20T19:05:08.684Z,53.90
2019-04-20T19:07:45.396Z,53.80
2019-04-20T19:10:18.580Z,55.20
2019-04-20T19:12:50.389Z,54.80
2019-04-20T19:15:37.453Z,55.50
2019-04-20T19:18:06.296Z,55.00
2019-04-20T19:20:28.841Z,55.90
2019-04-20T19:22:58.365Z,57.10
2019-04-20T19:25:33.190Z,58.30
2019-04-20T19:28:01.436Z,59.60
2019-04-20T19:30:41.035Z,60.00
2019-04-20T19:33:20.547Z,61.00
2019-04-20T19:35:48.691Z,61.90
2019-04-20T19:38:15.596Z,63.10
2019-04-20T19:40:47.923Z,64.50
2019-04-20T19:43:22.047Z,62.60
2019-04-20T19:46:25.669Z,63.10
2019-04-20T19:48:29.246Z,67.50
2019-04-20T19:51:22.343Z,66.00
2019-04-20T19:53:39.472Z,66.90
2019-04-20T19:56:04.040Z,66.30
2019-04-20T19:58:30.360Z,71.70
2019-04-20T20:00:55.770Z,72.00
2019-04-20T20:03:25.917Z,72.10
2019-04-20T20:05:58.274Z,72.90
2019-04-20T20:08:31.585Z,75.30
2019-04-20T20:11:01.882Z,74.40
2019-04-20T20:13:39.964Z,75.30
2019-04-20T20:16:10.547Z,74.70
2019-04-20T20:18:49.067Z,75.70
2019-04-20T20:21:20.137Z,76.60
2019-04-20T20:23:39.211Z,76.40
2019-04-20T20:26:22.393Z,76.50
2019-04-20T20:28:47.654Z,78.70
2019-04-20T20:31:23.490Z,75.90
2019-04-20T20:33:58.074Z,77.20
2019-04-20T20:36:21.326Z,77.50
2019-04-20T20:38:52.013Z,77.10
2019-04-20T20:41:26.334Z,77.20
2019-04-20T20:43:59.767Z,77.30
2019-04-20T20:46:32.763Z,80.70
2019-04-20T20:49:09.411Z,80.40
2019-04-20T20:52:02.410Z,80.00
2019-04-20T20:54:04.559Z,79.10
2019-04-20T20:56:35.183Z,80.20
2019-04-20T20:59:09.510Z,78.70
2019-04-20T21:01:42.588Z,79.00
2019-04-20T21:04:04.968Z,80.90
2019-04-20T21:06:35.162Z,79.90
2019-04-20T21:09:08.069Z,79.80
2019-04-20T21:11:40.208Z,80.60
2019-04-20T21:14:13.519Z,82.60
2019-04-20T21:16:54.666Z,81.10
2019-04-20T21:19:29.577Z,81.60
2019-04-20T21:21:54.705Z,82.00
2019-04-20T21:24:28.753Z,82.10
2019-04-20T21:27:00.678Z,83.40
2019-04-20T21:29:36.778Z,84.80
2019-04-20T21:32:08.837Z,82.20
2019-04-20T21:34:35.490Z,83.90
2019-04-20T21:37:10.654Z,83.60
2019-04-20T21:39:44.186Z,83.40
2019-04-20T21:42:14.429Z,86.70
2019-04-20T21:44:44.441Z,85.30
2019-04-20T21:47:15.664Z,85.30
2019-04-20T21:49:56.884Z,85.70
2019-04-20T21:52:23.500Z,84.30
2019-04-20T21:54:47.868Z,86.20
2019-04-20T21:57:18.125Z,86.40
2019-04-20T21:59:52.562Z,86.30
2019-04-20T22:02:25.389Z,86.10
2019-04-20T22:04:53.513Z,86.00
2019-04-20T22:07:23.621Z,87.80
2019-04-20T22:09:55.385Z,86.10
2019-04-20T22:12:28.472Z,87.20
2019-04-20T22:15:03.618Z,86.20
2019-04-20T22:17:33.092Z,85.00
2019-04-20T22:20:12.077Z,88.00
2019-04-20T22:22:46.901Z,87.90
2019-04-20T22:25:23.440Z,87.30
2019-04-20T22:27:38.540Z,88.80
2019-04-20T22:30:10.274Z,89.70
2019-04-20T22:32:43.272Z,89.00
2019-04-20T22:35:15.532Z,89.60
2019-04-20T22:37:53.149Z,90.10
2019-04-20T22:40:27.950Z,89.80
2019-04-20T22:42:57.784Z,89.60
2019-04-20T22:45:25.766Z,90.00
2019-04-20T22:48:01.143Z,88.50
2019-04-20T22:50:45.347Z,89.20
2019-04-20T22:53:17.883Z,90.40
2019-04-20T22:55:55.178Z,90.00
2019-04-20T22:58:19.458Z,90.50
2019-04-20T23:00:43.439Z,90.40
2019-04-20T23:03:05.233Z,90.40
2019-04-20T23:05:36.552Z,90.60
2019-04-20T23:08:06.751Z,90.40
2019-04-20T23:10:39.965Z,90.30
2019-04-20T23:13:09.997Z,90.40
2019-04-20T23:15:43.320Z,90.80
2019-04-20T23:18:11.961Z,90.50
2019-04-20T23:20:42.792Z,91.00
2019-04-20T23:23:18.129Z,91.30
2019-04-20T23:25:45.192Z,91.50
2019-04-20T23:28:18.047Z,91.40
2019-04-20T23:30:47.504Z,91.20
2019-04-20T23:33:18.265Z,91.00
2019-04-20T23:35:52.714Z,91.40
2019-04-20T23:38:23.183Z,91.70
2019-04-20T23:40:52.090Z,92.00
2019-04-20T23:43:28.150Z,92.30
2019-04-20T23:46:03.327Z,92.50
2019-04-20T23:48:39.266Z,93.10
2019-04-20T23:51:29.216Z,93.00
2019-04-20T23:53:52.180Z,92.80
2019-04-20T23:56:15.633Z,92.60
2019-04-20T23:58:46.395Z,92.20
